• Join FlightAware (Why Join?)
  • Login
  • US Flag 
08:04PM EDT


 

Airport Tracker/Info


-or-


 

Live Flight TrackerFlight Track Log ✈ N84RT ✈ 07-Sep-2013 ✈ KGPT - KLAL

Flight Track Log - Related Links

Times and Time Zones

All times are in EDT time to prevent confusion due to time zone crossing. See the N84RT flight status page for this flight to view local times or setup timezone preferences in your user account.

Time Position Orientation Groundspeed Altitude Reporting Facility
EDT Latitude Longitude Course Direction KTS MPH feet Rate Location/Type
09:45AM 30.3719 -88.9728 90° East 142 163 2,300  Level Houston Center
09:46AM 30.3681 -88.9356 97° East 141 162 2,900 720 Climbing Houston Center
09:47AM 30.3639 -88.8833 95° East 136 157 3,800 780 Climbing Houston Center
09:48AM 30.3586 -88.8414 98° East 134 154 4,600 780 Climbing Houston Center
09:49AM 30.3027 -88.7332 95° East  Level Estimated
09:49AM 30.3550 -88.7981 96° East 135 155 5,400  Level Houston Center
09:50AM 30.3026 -88.6736 90° East  Level FlightAware Approximate
09:50AM 30.3519 -88.7553 95° East 134 154 6,100  Level Houston Center
09:51AM 30.3475 -88.7100 96° East 139 160 6,800 720 Climbing Houston Center
09:52AM 30.3433 -88.6647 96° East 141 162 7,600 720 Climbing Houston Center
09:53AM 30.3392 -88.6200 96° East 141 162 8,300 720 Climbing Houston Center
09:54AM 30.3358 -88.5753 95° East 140 161 9,100 780 Climbing Houston Center
09:55AM 30.3303 -88.5225 97° East 139 160 10,000 780 Climbing Houston Center
09:56AM 30.3267 -88.4775 95° East 141 162 10,700 480 Climbing Houston Center
09:57AM 30.3222 -88.4292 96° East 150 173 11,100 240 Climbing Houston Center
09:58AM 30.3139 -88.3725 100° East 176 203 11,200  Climbing Houston Center
09:59AM 30.3028 -88.3150 103° East 185 213 11,200 -60 Level Houston Center
10:00AM 30.2969 -88.2522 96° East 197 227 11,100 -60 Descending Houston Center
10:01AM 30.2922 -88.1925 95° East 190 219 11,100  Level Houston Center
10:02AM 30.2869 -88.1328 96° East 188 216 11,100  Level Houston Center
10:03AM 30.2797 -88.0589 96° East 193 222 11,100  Level Houston Center
10:04AM 30.2744 -87.9992 96° East 190 219 11,100  Level Houston Center
10:05AM 30.2681 -87.9400 97° East 188 216 11,100  Level Houston Center
10:06AM 30.2622 -87.8800 96° East 189 217 11,100  Level Houston Center
10:08AM 30.2503 -87.7608 97° East 188 216 11,100  Level Houston Center
10:09AM 30.2453 -87.7011 96° East 187 215 11,100  Level Houston Center
10:10AM 30.2367 -87.6294 98° East 189 217 11,100  Level Houston Center
10:11AM 30.2325 -87.5689 95° East 189 217 11,100  Level Houston Center
10:12AM 30.2264 -87.5222 99° East 188 216 11,100  Level Jacksonville Center
10:13AM 30.2181 -87.4642 99° East 188 216 11,100  Level Jacksonville Center
10:14AM 30.2139 -87.4017 94° East 191 220 11,100  Level Jacksonville Center
10:15AM 30.2078 -87.3389 96° East 192 221 11,100  Level Jacksonville Center
10:16AM 30.2014 -87.2808 97° East 192 221 11,100  Level Jacksonville Center
10:17AM 30.1953 -87.2156 96° East 190 219 11,100  Level Jacksonville Center
10:19AM 30.1897 -87.1394 95° East  Level FlightAware Approximate
10:26AM 30.1551 -86.7242 97° East  Level FlightAware Approximate
10:27AM 30.1488 -86.6651 97° East  Level FlightAware Approximate
10:28AM 30.1425 -86.6060 97° East  Level FlightAware Approximate
10:29AM 30.1361 -86.5469 97° East  Level FlightAware Approximate
10:30AM 30.1297 -86.4878 97° East  Level FlightAware Approximate
10:31AM 30.1233 -86.4287 97° East  Level FlightAware Approximate
10:32AM 30.1321 -86.3706 80° East  Level FlightAware Approximate
10:33AM 30.1409 -86.3125 80° East  Level FlightAware Approximate
10:34AM 30.1497 -86.2543 80° East  Level FlightAware Approximate
10:35AM 30.1584 -86.1962 80° East  Level FlightAware Approximate
10:36AM 30.1671 -86.1380 80° East  Level FlightAware Approximate
10:37AM 30.1758 -86.0798 80° East  Level FlightAware Approximate
10:38AM 30.1845 -86.0216 80° East  Level FlightAware Approximate
10:39AM 30.1579 -85.9707 121° Southeast  Level Estimated
10:40AM 30.1313 -85.9198 121° Southeast  Level Estimated
10:41AM 30.1046 -85.8690 121° Southeast  Level Estimated
10:42AM 30.0780 -85.8182 121° Southeast  Level Estimated
10:43AM 30.0513 -85.7673 121° Southeast  Level Estimated
10:44AM 30.0246 -85.7166 121° Southeast  Level Estimated
10:45AM 29.9979 -85.6658 121° Southeast  Level Estimated
10:46AM 29.9712 -85.6151 121° Southeast  Level Estimated
10:47AM 29.9444 -85.5644 121° Southeast  Level Estimated
10:48AM 29.9177 -85.5138 121° Southeast  Level Estimated
10:48AM 29.7186 -85.4658 121° Southeast 209 241 11,200  Level Jacksonville Center
10:49AM 29.8909 -85.4631 121° Southeast  Level Estimated
10:49AM 29.6925 -85.4125 119° Southeast 204 235 11,200  Level Jacksonville Center
10:50AM 29.8641 -85.4125 121° Southeast  Level Estimated
10:50AM 29.6664 -85.3592 119° Southeast 199 229 11,200  Level Jacksonville Center
10:51AM 29.8372 -85.3619 121° Southeast  Level Estimated
10:51AM 29.6403 -85.3058 119° Southeast 194 223 11,200  Level Jacksonville Center
10:52AM 29.8104 -85.3114 121° Southeast  Level Estimated
10:52AM 29.6142 -85.2503 118° Southeast 194 223 11,200  Level Jacksonville Center
10:53AM 29.5881 -85.1972 119° Southeast 189 217 11,200  Level Jacksonville Center
10:54AM 29.5619 -85.1417 118° Southeast 189 217 11,200  Level Jacksonville Center
10:55AM 29.5358 -85.0861 118° Southeast 189 217 11,200  Level Jacksonville Center
10:56AM 29.5094 -85.0331 120° Southeast 189 217 11,200  Level Jacksonville Center
10:57AM 29.4833 -84.9778 118° Southeast 189 217 11,200  Level Jacksonville Center
10:58AM 29.4569 -84.9269 121° Southeast 189 217 11,200  Level Jacksonville Center
10:59AM 29.4308 -84.8717 118° Southeast 189 217 11,200  Level Jacksonville Center
11:00AM 29.4044 -84.8164 119° Southeast 189 217 11,200 -60 Level Jacksonville Center
11:01AM 29.3781 -84.7633 120° Southeast 189 217 11,100 -60 Descending Jacksonville Center
11:02AM 29.3539 -84.7081 117° Southeast 189 217 11,100  Level Jacksonville Center
11:03AM 29.3253 -84.6575 123° Southeast 189 217 11,100  Level Jacksonville Center
11:04AM 29.3011 -84.6000 116° Southeast 189 217 11,100  Level Jacksonville Center
11:05AM 29.2703 -84.5494 125° Southeast 194 223 11,100  Level Jacksonville Center
11:06AM 29.2461 -84.4942 117° Southeast 189 217 11,100  Level Jacksonville Center
11:07AM 29.2156 -84.4367 121° Southeast 189 217 11,100  Level Jacksonville Center
11:08AM 29.1889 -84.3817 119° Southeast 194 223 11,100  Level Jacksonville Center
11:09AM 29.1644 -84.3289 118° Southeast 194 223 11,100  Level Jacksonville Center
11:10AM 29.1381 -84.2739 119° Southeast 194 223 11,100  Level Jacksonville Center
11:11AM 29.1114 -84.2211 120° Southeast 194 223 11,100  Level Jacksonville Center
11:12AM 29.0806 -84.1661 123° Southeast 194 223 11,100  Level Jacksonville Center
11:13AM 29.0561 -84.1158 119° Southeast 187 215 11,100  Level Jacksonville Center
11:14AM 29.0317 -84.0611 117° Southeast 193 222 11,100  Level Jacksonville Center
11:15AM 29.0028 -84.0083 122° Southeast 193 222 11,100  Level Jacksonville Center
11:16AM 28.9761 -83.9536 119° Southeast 188 216 11,100  Level Jacksonville Center
11:17AM 28.9494 -83.8986 119° Southeast 193 222 11,100  Level Jacksonville Center
11:18AM 28.9228 -83.8486 121° Southeast 193 222 11,100  Level Jacksonville Center
11:19AM 28.8939 -83.7914 120° Southeast 187 215 11,100  Level Jacksonville Center
11:20AM 28.8692 -83.7389 118° Southeast 192 221 11,100  Level Jacksonville Center
11:21AM 28.8633 -83.6797 96° East 184 212 11,100  Level Jacksonville Center
11:22AM 28.8575 -83.6203 96° East 184 212 11,100  Level Jacksonville Center
11:23AM 28.8514 -83.5633 97° East 184 212 11,100 -60 Level Jacksonville Center
11:24AM 28.8456 -83.5017 96° East 184 212 11,000 -300 Descending Jacksonville Center
11:25AM 28.8394 -83.4400 96° East 184 212 10,500 -480 Descending Jacksonville Center
11:26AM 28.8314 -83.3736 98° East 194 223 10,100 -480 Descending Jacksonville Center
11:27AM 28.8275 -83.3097 94° East 199 229 9,600 -540 Descending Jacksonville Center
11:28AM 28.8214 -83.2481 96° East 204 235 9,100 -300 Descending Jacksonville Center
11:29AM 28.8153 -83.1864 96° East 198 228 9,000 -60 Descending Jacksonville Center
11:30AM 28.8092 -83.1272 97° East 193 222 9,000  Level Jacksonville Center
11:31AM 28.8031 -83.0728 97° East 182 209 9,000  Level Jacksonville Center
11:32AM 28.7947 -83.0158 99° East 182 209 9,000  Level Jacksonville Center
11:33AM 28.7906 -82.9589 95° East 182 209 9,000  Level Jacksonville Center
11:34AM 28.7864 -82.9114 96° East 182 209 9,000  Level Jacksonville Center
11:35AM 28.7781 -82.8428 98° East 182 209 9,000  Level Jacksonville Center
11:36AM 28.7717 -82.7861 97° East 182 209 9,000  Level Jacksonville Center
11:37AM 28.7656 -82.7267 97° East 182 209 9,000  Level Jacksonville Center
11:38AM 28.7667 -82.6333 89° East 183 211 9,000  Level Tampa TRACON
11:39AM 28.7500 -82.5833 111° Southeast 182 209 9,000  Level Tampa TRACON
11:40AM 28.7500 -82.5167 90° East 185 213 9,000  Level Tampa TRACON
11:41AM 28.7167 -82.4667 127° Southeast 194 223 9,000  Level Tampa TRACON
11:42AM 28.6667 -82.4333 150° Southeast 192 221 9,000  Level Tampa TRACON
11:43AM 28.6333 -82.4167 156° South 194 223 9,000 -360 Level Tampa TRACON
11:44AM 28.5833 -82.3833 150° Southeast 202 232 8,300 -720 Descending Tampa TRACON
11:45AM 28.5167 -82.3500 156° South 211 243 7,600 -720 Descending Tampa TRACON
11:46AM 28.4667 -82.3167 150° Southeast 213 245 6,900 -840 Descending Tampa TRACON
11:47AM 28.4167 -82.2833 150° Southeast 212 244 6,000 -480 Descending Tampa TRACON
11:48AM 28.3667 -82.2667 164° South 186 214 6,000 -240 Level Tampa TRACON
11:49AM 28.3167 -82.2667 180° South 177 204 5,600 -660 Descending Tampa TRACON
11:50AM 28.2667 -82.2500 164° South 193 222 4,700 -900 Descending Tampa TRACON
11:51AM 28.2167 -82.2500 180° South 190 219 3,900 -780 Descending Tampa TRACON
11:52AM 28.1667 -82.2500 180° South 186 214 3,100 -480 Descending Tampa TRACON
11:53AM 28.1167 -82.2333 164° South 164 189 2,900 -180 Descending Tampa TRACON
11:54AM 28.0667 -82.2333 180° South 153 176 2,800 -120 Descending Tampa TRACON
11:55AM 28.0333 -82.2333 180° South 160 184 2,700 -120 Descending Tampa TRACON
11:56AM 27.9833 -82.2333 180° South 143 165 2,600 -480 Descending Tampa TRACON
11:57AM 27.9833 -82.1833 90° East 171 197 1,800 -480 Descending Tampa TRACON
11:58AM 27.9833 -82.1333 90° East 147 169 1,700 -240 Descending Tampa TRACON
11:59AM 27.9833 -82.1000 90° East 112 129 1,400 -480 Descending Tampa TRACON
12:00PM 27.9833 -82.0667 90° East 107 123 800 -600 Descending Tampa TRACON
12:02PM 27.9833 -82.0167 105° East  Level FlightAware Approximate
12:09PM 27.9889 -82.0186 105° East  Level Estimated
12:10PM 27.9833 -82.0167 105° East  Level FlightAware Approximate